Главная страница
METAR-TAF:

METAR-TAF

Аэропорты :

Краснодар, Россия

Пашковский

широта: 45-02N, долгота: 039-09E, высота над уровнем моря: 33 м

Текущие метеонаблюдения

Эта сводка был подготовлена 39 минут назад, в 16:00 UTC
Ветер 2 Узел от южный
Температура 29°C
Влажность 48%
Давление 1012 hPa
Видимость 10 км и более
Нет облачности ниже 1500 м, и нет кучево-дождевой облачности

METAR: URKK 231600Z 17001MPS CAVOK 29/17 Q1012 R23L/CLRD70 NOSIG RMK QFE755

Время: 19:39 (16:39 UTC)

Прогноз

Эта сводка был подготовлена 2 часа и 44 минут назад, в 13:55 UTC
Прогноз действительный с 23-го 15 UTC до 24-го 15 UTC
Ветер 6 Узел от юго-юго-восточный с порывами до 16 Узел
Видимость 10 км и более
Отдельные облака на высоте 3000 фута
временами
С 23-го 18 UTC до 24-го 06 UTC
Видимость: 1000 м
Отдельные облака на высоте 400 фута
дымка

TAF: URKK 231355Z 2315/2415 16003G08MPS 9999 SCT030 TEMPO 2318/2406 1000 BR SCT004

Метеонаблюдения и прогнозы для более 4000 аэропортов (сводки METAR и TAF).

Имеющиеся станции представлены на карте желтыми и красными точками.

Чтобы увидеть название станции, наведите на нее мышь.

Затем щелкните, чтобы увидеть метеонаблюдения и метеопрогнозы.

Управление картой: чтобы увеличить масштаб, щелкните зеленые кнопки с черным крестиком; чтобы уменьшить масштаб, щелкните зеленую кнопку с тире; для просмотра соседних карт щелкайте зеленые стрелки.


METAR-TAF: